sensor_id;sensor_type;location;lat;lon;timestamp;P1;durP1;ratioP1;P2;durP2;ratioP2
75732;SDS011;73508;47.424;19.400;2023-12-04T00:02:22;14.73;;;6.73;;
75732;SDS011;73508;47.424;19.400;2023-12-04T00:04:48;14.32;;;6.10;;
75732;SDS011;73508;47.424;19.400;2023-12-04T00:07:14;14.20;;;6.47;;
75732;SDS011;73508;47.424;19.400;2023-12-04T00:09:39;15.77;;;6.03;;
75732;SDS011;73508;47.424;19.400;2023-12-04T00:12:05;12.80;;;5.87;;
75732;SDS011;73508;47.424;19.400;2023-12-04T00:14:30;10.20;;;4.70;;
75732;SDS011;73508;47.424;19.400;2023-12-04T00:16:56;14.90;;;5.23;;
75732;SDS011;73508;47.424;19.400;2023-12-04T00:19:21;13.40;;;6.20;;
75732;SDS011;73508;47.424;19.400;2023-12-04T00:21:46;13.77;;;5.70;;
75732;SDS011;73508;47.424;19.400;2023-12-04T00:24:12;14.60;;;6.23;;
75732;SDS011;73508;47.424;19.400;2023-12-04T00:26:38;10.87;;;5.20;;
75732;SDS011;73508;47.424;19.400;2023-12-04T00:29:03;13.38;;;6.12;;
75732;SDS011;73508;47.424;19.400;2023-12-04T00:31:29;12.27;;;5.50;;
75732;SDS011;73508;47.424;19.400;2023-12-04T00:33:56;12.02;;;5.57;;
75732;SDS011;73508;47.424;19.400;2023-12-04T00:36:21;12.97;;;5.50;;
75732;SDS011;73508;47.424;19.400;2023-12-04T00:38:47;14.40;;;5.57;;
75732;SDS011;73508;47.424;19.400;2023-12-04T00:41:12;13.82;;;5.85;;
75732;SDS011;73508;47.424;19.400;2023-12-04T00:43:38;13.23;;;6.40;;
75732;SDS011;73508;47.424;19.400;2023-12-04T00:46:03;13.73;;;6.00;;
75732;SDS011;73508;47.424;19.400;2023-12-04T00:48:29;10.47;;;4.93;;
75732;SDS011;73508;47.424;19.400;2023-12-04T00:50:54;13.62;;;5.90;;
75732;SDS011;73508;47.424;19.400;2023-12-04T00:53:19;13.63;;;5.90;;
75732;SDS011;73508;47.424;19.400;2023-12-04T00:55:45;15.03;;;5.37;;
75732;SDS011;73508;47.424;19.400;2023-12-04T00:58:10;15.30;;;6.20;;
75732;SDS011;73508;47.424;19.400;2023-12-04T01:00:36;12.00;;;5.63;;
75732;SDS011;73508;47.424;19.400;2023-12-04T01:03:02;12.10;;;5.80;;
75732;SDS011;73508;47.424;19.400;2023-12-04T01:05:27;15.18;;;6.30;;
75732;SDS011;73508;47.424;19.400;2023-12-04T01:07:53;14.67;;;6.40;;
75732;SDS011;73508;47.424;19.400;2023-12-04T01:10:18;15.80;;;6.23;;
75732;SDS011;73508;47.424;19.400;2023-12-04T01:12:43;15.07;;;6.30;;
75732;SDS011;73508;47.424;19.400;2023-12-04T01:15:09;13.57;;;5.87;;
75732;SDS011;73508;47.424;19.400;2023-12-04T01:17:35;13.47;;;6.03;;
75732;SDS011;73508;47.424;19.400;2023-12-04T01:20:00;14.18;;;6.10;;
75732;SDS011;73508;47.424;19.400;2023-12-04T01:22:26;13.33;;;5.13;;
75732;SDS011;73508;47.424;19.400;2023-12-04T01:24:51;13.62;;;5.72;;
75732;SDS011;73508;47.424;19.400;2023-12-04T01:27:17;15.60;;;6.30;;
75732;SDS011;73508;47.424;19.400;2023-12-04T01:29:42;11.40;;;5.10;;
75732;SDS011;73508;47.424;19.400;2023-12-04T01:32:08;15.27;;;5.73;;
75732;SDS011;73508;47.424;19.400;2023-12-04T01:34:33;14.45;;;5.75;;
75732;SDS011;73508;47.424;19.400;2023-12-04T01:36:58;12.97;;;5.63;;
75732;SDS011;73508;47.424;19.400;2023-12-04T01:39:24;15.77;;;6.73;;
75732;SDS011;73508;47.424;19.400;2023-12-04T01:41:49;14.83;;;6.57;;
75732;SDS011;73508;47.424;19.400;2023-12-04T01:44:15;13.90;;;5.12;;
75732;SDS011;73508;47.424;19.400;2023-12-04T01:46:41;12.23;;;6.07;;
75732;SDS011;73508;47.424;19.400;2023-12-04T01:49:07;11.48;;;5.50;;
75732;SDS011;73508;47.424;19.400;2023-12-04T01:51:32;14.97;;;6.10;;
75732;SDS011;73508;47.424;19.400;2023-12-04T01:53:59;13.23;;;5.28;;
75732;SDS011;73508;47.424;19.400;2023-12-04T01:56:24;10.83;;;5.73;;
75732;SDS011;73508;47.424;19.400;2023-12-04T01:58:50;12.50;;;5.60;;
75732;SDS011;73508;47.424;19.400;2023-12-04T02:03:49;16.55;;;6.82;;
75732;SDS011;73508;47.424;19.400;2023-12-04T02:06:16;13.43;;;5.78;;
75732;SDS011;73508;47.424;19.400;2023-12-04T02:08:42;16.95;;;6.43;;
75732;SDS011;73508;47.424;19.400;2023-12-04T02:11:07;14.70;;;6.77;;
75732;SDS011;73508;47.424;19.400;2023-12-04T02:13:33;19.03;;;7.17;;
75732;SDS011;73508;47.424;19.400;2023-12-04T02:15:58;14.68;;;6.80;;
75732;SDS011;73508;47.424;19.400;2023-12-04T02:18:27;18.20;;;7.28;;
75732;SDS011;73508;47.424;19.400;2023-12-04T02:20:53;15.00;;;6.10;;
75732;SDS011;73508;47.424;19.400;2023-12-04T02:23:18;15.35;;;5.95;;
75732;SDS011;73508;47.424;19.400;2023-12-04T02:25:44;19.50;;;7.63;;
75732;SDS011;73508;47.424;19.400;2023-12-04T02:28:10;16.70;;;6.97;;
75732;SDS011;73508;47.424;19.400;2023-12-04T02:30:37;15.75;;;6.78;;
75732;SDS011;73508;47.424;19.400;2023-12-04T02:33:05;11.05;;;5.47;;
75732;SDS011;73508;47.424;19.400;2023-12-04T02:35:31;14.48;;;6.53;;
75732;SDS011;73508;47.424;19.400;2023-12-04T02:37:58;13.70;;;6.53;;
75732;SDS011;73508;47.424;19.400;2023-12-04T02:40:25;15.93;;;7.12;;
75732;SDS011;73508;47.424;19.400;2023-12-04T02:42:51;12.65;;;6.47;;
75732;SDS011;73508;47.424;19.400;2023-12-04T02:45:16;13.27;;;6.07;;
75732;SDS011;73508;47.424;19.400;2023-12-04T02:47:42;16.10;;;6.83;;
75732;SDS011;73508;47.424;19.400;2023-12-04T02:50:07;14.07;;;6.65;;
75732;SDS011;73508;47.424;19.400;2023-12-04T02:52:33;14.30;;;6.37;;
75732;SDS011;73508;47.424;19.400;2023-12-04T02:54:58;14.77;;;6.83;;
75732;SDS011;73508;47.424;19.400;2023-12-04T02:57:24;14.60;;;6.37;;
75732;SDS011;73508;47.424;19.400;2023-12-04T02:59:49;15.17;;;7.00;;
75732;SDS011;73508;47.424;19.400;2023-12-04T03:02:15;17.90;;;8.00;;
75732;SDS011;73508;47.424;19.400;2023-12-04T03:04:40;17.23;;;7.57;;
75732;SDS011;73508;47.424;19.400;2023-12-04T03:07:06;16.55;;;7.18;;
75732;SDS011;73508;47.424;19.400;2023-12-04T03:09:31;13.83;;;6.93;;
75732;SDS011;73508;47.424;19.400;2023-12-04T03:11:57;19.53;;;7.00;;
75732;SDS011;73508;47.424;19.400;2023-12-04T03:14:22;14.27;;;6.50;;
75732;SDS011;73508;47.424;19.400;2023-12-04T03:16:48;15.30;;;7.10;;
75732;SDS011;73508;47.424;19.400;2023-12-04T03:19:14;16.20;;;6.87;;
75732;SDS011;73508;47.424;19.400;2023-12-04T03:21:40;17.87;;;7.03;;
75732;SDS011;73508;47.424;19.400;2023-12-04T03:24:05;15.70;;;7.77;;
75732;SDS011;73508;47.424;19.400;2023-12-04T03:26:30;15.50;;;6.63;;
75732;SDS011;73508;47.424;19.400;2023-12-04T03:28:56;21.48;;;8.32;;
75732;SDS011;73508;47.424;19.400;2023-12-04T03:31:22;13.93;;;6.60;;
75732;SDS011;73508;47.424;19.400;2023-12-04T03:33:48;19.33;;;7.75;;
75732;SDS011;73508;47.424;19.400;2023-12-04T03:36:13;15.43;;;6.87;;
75732;SDS011;73508;47.424;19.400;2023-12-04T03:38:39;14.60;;;7.70;;
75732;SDS011;73508;47.424;19.400;2023-12-04T03:41:04;18.50;;;6.93;;
75732;SDS011;73508;47.424;19.400;2023-12-04T03:43:30;15.23;;;6.32;;
75732;SDS011;73508;47.424;19.400;2023-12-04T03:45:55;15.67;;;7.17;;
75732;SDS011;73508;47.424;19.400;2023-12-04T03:48:21;15.43;;;6.90;;
75732;SDS011;73508;47.424;19.400;2023-12-04T03:50:46;18.77;;;6.80;;
75732;SDS011;73508;47.424;19.400;2023-12-04T03:53:12;12.85;;;6.78;;
75732;SDS011;73508;47.424;19.400;2023-12-04T03:55:37;15.03;;;6.63;;
75732;SDS011;73508;47.424;19.400;2023-12-04T03:58:03;17.17;;;7.30;;
75732;SDS011;73508;47.424;19.400;2023-12-04T04:00:28;13.98;;;6.07;;
75732;SDS011;73508;47.424;19.400;2023-12-04T04:02:54;14.23;;;7.27;;
75732;SDS011;73508;47.424;19.400;2023-12-04T04:05:19;16.73;;;6.70;;
75732;SDS011;73508;47.424;19.400;2023-12-04T04:07:45;12.98;;;6.40;;
75732;SDS011;73508;47.424;19.400;2023-12-04T04:10:10;14.53;;;7.30;;
75732;SDS011;73508;47.424;19.400;2023-12-04T04:12:37;12.05;;;6.45;;
75732;SDS011;73508;47.424;19.400;2023-12-04T04:15:02;14.30;;;6.70;;
75732;SDS011;73508;47.424;19.400;2023-12-04T04:17:28;18.08;;;8.85;;
75732;SDS011;73508;47.424;19.400;2023-12-04T04:19:54;18.90;;;8.20;;
75732;SDS011;73508;47.424;19.400;2023-12-04T04:22:20;14.90;;;5.90;;
75732;SDS011;73508;47.424;19.400;2023-12-04T04:24:46;15.52;;;6.43;;
75732;SDS011;73508;47.424;19.400;2023-12-04T04:27:11;12.90;;;4.90;;
75732;SDS011;73508;47.424;19.400;2023-12-04T04:29:37;11.47;;;5.07;;
75732;SDS011;73508;47.424;19.400;2023-12-04T04:32:02;13.37;;;6.13;;
75732;SDS011;73508;47.424;19.400;2023-12-04T04:34:28;12.48;;;5.65;;
75732;SDS011;73508;47.424;19.400;2023-12-04T04:36:53;12.30;;;6.40;;
75732;SDS011;73508;47.424;19.400;2023-12-04T04:39:19;17.70;;;8.30;;
75732;SDS011;73508;47.424;19.400;2023-12-04T04:41:44;15.13;;;7.33;;
75732;SDS011;73508;47.424;19.400;2023-12-04T04:44:10;17.20;;;7.80;;
75732;SDS011;73508;47.424;19.400;2023-12-04T04:46:35;22.27;;;8.93;;
75732;SDS011;73508;47.424;19.400;2023-12-04T04:49:01;15.90;;;7.62;;
75732;SDS011;73508;47.424;19.400;2023-12-04T04:51:27;19.63;;;10.40;;
75732;SDS011;73508;47.424;19.400;2023-12-04T04:53:53;18.20;;;8.80;;
75732;SDS011;73508;47.424;19.400;2023-12-04T04:56:19;17.87;;;7.90;;
75732;SDS011;73508;47.424;19.400;2023-12-04T04:58:44;14.87;;;7.70;;
75732;SDS011;73508;47.424;19.400;2023-12-04T05:01:09;20.53;;;7.87;;
75732;SDS011;73508;47.424;19.400;2023-12-04T05:03:35;20.40;;;9.10;;
75732;SDS011;73508;47.424;19.400;2023-12-04T05:06:00;19.67;;;9.17;;
75732;SDS011;73508;47.424;19.400;2023-12-04T05:08:26;20.42;;;10.70;;
75732;SDS011;73508;47.424;19.400;2023-12-04T05:10:51;18.83;;;9.33;;
75732;SDS011;73508;47.424;19.400;2023-12-04T05:13:17;23.97;;;9.40;;
75732;SDS011;73508;47.424;19.400;2023-12-04T05:15:43;20.65;;;9.07;;
75732;SDS011;73508;47.424;19.400;2023-12-04T05:18:08;24.13;;;10.67;;
75732;SDS011;73508;47.424;19.400;2023-12-04T05:20:34;23.80;;;8.57;;
75732;SDS011;73508;47.424;19.400;2023-12-04T05:23:02;21.80;;;10.10;;
75732;SDS011;73508;47.424;19.400;2023-12-04T05:25:27;19.15;;;9.52;;
75732;SDS011;73508;47.424;19.400;2023-12-04T05:27:53;19.00;;;10.30;;
75732;SDS011;73508;47.424;19.400;2023-12-04T05:30:18;18.80;;;9.70;;
75732;SDS011;73508;47.424;19.400;2023-12-04T05:32:44;19.70;;;9.13;;
75732;SDS011;73508;47.424;19.400;2023-12-04T05:35:09;19.83;;;8.85;;
75732;SDS011;73508;47.424;19.400;2023-12-04T05:37:35;19.90;;;10.03;;
75732;SDS011;73508;47.424;19.400;2023-12-04T05:40:00;23.20;;;10.63;;
75732;SDS011;73508;47.424;19.400;2023-12-04T05:42:26;24.15;;;10.65;;
75732;SDS011;73508;47.424;19.400;2023-12-04T05:44:51;19.97;;;10.00;;
75732;SDS011;73508;47.424;19.400;2023-12-04T05:47:20;22.73;;;9.93;;
75732;SDS011;73508;47.424;19.400;2023-12-04T05:49:46;22.17;;;10.30;;
75732;SDS011;73508;47.424;19.400;2023-12-04T05:52:11;23.35;;;10.73;;
75732;SDS011;73508;47.424;19.400;2023-12-04T05:54:37;21.17;;;10.57;;
75732;SDS011;73508;47.424;19.400;2023-12-04T05:57:02;24.90;;;10.23;;
75732;SDS011;73508;47.424;19.400;2023-12-04T05:59:28;22.67;;;11.18;;
75732;SDS011;73508;47.424;19.400;2023-12-04T06:01:53;25.13;;;10.73;;
75732;SDS011;73508;47.424;19.400;2023-12-04T06:04:19;26.70;;;12.37;;
75732;SDS011;73508;47.424;19.400;2023-12-04T06:06:44;27.62;;;13.00;;
75732;SDS011;73508;47.424;19.400;2023-12-04T06:09:09;28.00;;;11.67;;
75732;SDS011;73508;47.424;19.400;2023-12-04T06:11:35;26.13;;;13.37;;
75732;SDS011;73508;47.424;19.400;2023-12-04T06:14:00;27.67;;;11.70;;
75732;SDS011;73508;47.424;19.400;2023-12-04T06:16:26;28.90;;;12.82;;
75732;SDS011;73508;47.424;19.400;2023-12-04T06:18:51;26.13;;;11.43;;
75732;SDS011;73508;47.424;19.400;2023-12-04T06:21:17;29.73;;;12.83;;
75732;SDS011;73508;47.424;19.400;2023-12-04T06:23:43;31.00;;;13.95;;
75732;SDS011;73508;47.424;19.400;2023-12-04T06:26:10;27.48;;;13.80;;
75732;SDS011;73508;47.424;19.400;2023-12-04T06:28:37;38.05;;;16.73;;
75732;SDS011;73508;47.424;19.400;2023-12-04T06:31:03;29.33;;;15.10;;
75732;SDS011;73508;47.424;19.400;2023-12-04T06:33:29;33.40;;;14.90;;
75732;SDS011;73508;47.424;19.400;2023-12-04T06:35:55;30.15;;;15.23;;
75732;SDS011;73508;47.424;19.400;2023-12-04T06:38:21;32.23;;;16.00;;
75732;SDS011;73508;47.424;19.400;2023-12-04T06:40:49;29.58;;;14.75;;
75732;SDS011;73508;47.424;19.400;2023-12-04T06:43:15;36.70;;;15.98;;
75732;SDS011;73508;47.424;19.400;2023-12-04T06:45:44;29.43;;;14.27;;
75732;SDS011;73508;47.424;19.400;2023-12-04T06:48:11;27.45;;;13.55;;
75732;SDS011;73508;47.424;19.400;2023-12-04T06:50:38;28.35;;;13.75;;
75732;SDS011;73508;47.424;19.400;2023-12-04T06:53:05;27.62;;;13.35;;
75732;SDS011;73508;47.424;19.400;2023-12-04T06:55:30;24.87;;;12.80;;
75732;SDS011;73508;47.424;19.400;2023-12-04T06:57:56;25.00;;;11.93;;
75732;SDS011;73508;47.424;19.400;2023-12-04T07:00:21;28.10;;;11.93;;
75732;SDS011;73508;47.424;19.400;2023-12-04T07:02:46;27.37;;;12.90;;
75732;SDS011;73508;47.424;19.400;2023-12-04T07:05:12;26.43;;;13.07;;
75732;SDS011;73508;47.424;19.400;2023-12-04T07:07:38;31.87;;;14.52;;
75732;SDS011;73508;47.424;19.400;2023-12-04T07:10:03;32.43;;;13.40;;
75732;SDS011;73508;47.424;19.400;2023-12-04T07:12:29;31.17;;;14.95;;
75732;SDS011;73508;47.424;19.400;2023-12-04T07:14:54;29.23;;;13.10;;
75732;SDS011;73508;47.424;19.400;2023-12-04T07:17:20;37.73;;;15.40;;
75732;SDS011;73508;47.424;19.400;2023-12-04T07:19:47;30.33;;;14.00;;
75732;SDS011;73508;47.424;19.400;2023-12-04T07:22:12;27.73;;;11.90;;
75732;SDS011;73508;47.424;19.400;2023-12-04T07:24:38;29.25;;;13.40;;
75732;SDS011;73508;47.424;19.400;2023-12-04T07:27:04;26.90;;;12.73;;
75732;SDS011;73508;47.424;19.400;2023-12-04T07:29:29;38.55;;;15.23;;
75732;SDS011;73508;47.424;19.400;2023-12-04T07:31:55;29.40;;;14.13;;
75732;SDS011;73508;47.424;19.400;2023-12-04T07:34:20;28.67;;;13.63;;
75732;SDS011;73508;47.424;19.400;2023-12-04T07:36:46;26.77;;;14.02;;
75732;SDS011;73508;47.424;19.400;2023-12-04T07:39:13;32.78;;;14.23;;
75732;SDS011;73508;47.424;19.400;2023-12-04T07:41:38;35.30;;;14.17;;
75732;SDS011;73508;47.424;19.400;2023-12-04T07:44:04;31.50;;;13.60;;
75732;SDS011;73508;47.424;19.400;2023-12-04T07:46:29;33.00;;;15.50;;
75732;SDS011;73508;47.424;19.400;2023-12-04T07:48:55;30.58;;;13.68;;
75732;SDS011;73508;47.424;19.400;2023-12-04T07:51:20;32.37;;;15.23;;
75732;SDS011;73508;47.424;19.400;2023-12-04T07:53:46;31.93;;;14.00;;
75732;SDS011;73508;47.424;19.400;2023-12-04T07:56:12;34.10;;;13.10;;
75732;SDS011;73508;47.424;19.400;2023-12-04T07:58:38;27.62;;;14.32;;
75732;SDS011;73508;47.424;19.400;2023-12-04T08:01:04;29.50;;;14.00;;
75732;SDS011;73508;47.424;19.400;2023-12-04T08:03:30;28.73;;;13.25;;
75732;SDS011;73508;47.424;19.400;2023-12-04T08:05:56;30.12;;;13.80;;
75732;SDS011;73508;47.424;19.400;2023-12-04T08:08:22;26.97;;;12.60;;
75732;SDS011;73508;47.424;19.400;2023-12-04T08:10:47;32.43;;;13.93;;
75732;SDS011;73508;47.424;19.400;2023-12-04T08:13:13;26.48;;;13.43;;
75732;SDS011;73508;47.424;19.400;2023-12-04T08:15:39;25.30;;;11.97;;
75732;SDS011;73508;47.424;19.400;2023-12-04T08:18:04;29.95;;;13.02;;
75732;SDS011;73508;47.424;19.400;2023-12-04T08:20:29;25.50;;;12.30;;
75732;SDS011;73508;47.424;19.400;2023-12-04T08:22:55;29.30;;;11.83;;
75732;SDS011;73508;47.424;19.400;2023-12-04T08:25:20;26.17;;;11.63;;
75732;SDS011;73508;47.424;19.400;2023-12-04T08:27:46;24.20;;;11.32;;
75732;SDS011;73508;47.424;19.400;2023-12-04T08:30:13;24.55;;;12.68;;
75732;SDS011;73508;47.424;19.400;2023-12-04T08:32:38;31.70;;;13.83;;
75732;SDS011;73508;47.424;19.400;2023-12-04T08:35:04;24.53;;;11.80;;
75732;SDS011;73508;47.424;19.400;2023-12-04T08:37:31;28.00;;;11.97;;
75732;SDS011;73508;47.424;19.400;2023-12-04T08:39:56;30.52;;;13.55;;
75732;SDS011;73508;47.424;19.400;2023-12-04T08:42:22;27.03;;;12.97;;
75732;SDS011;73508;47.424;19.400;2023-12-04T08:44:47;27.40;;;12.60;;
75732;SDS011;73508;47.424;19.400;2023-12-04T08:47:13;23.85;;;11.82;;
75732;SDS011;73508;47.424;19.400;2023-12-04T08:49:39;29.30;;;12.80;;
75732;SDS011;73508;47.424;19.400;2023-12-04T08:52:06;26.70;;;12.88;;
75732;SDS011;73508;47.424;19.400;2023-12-04T08:54:32;22.87;;;10.57;;
75732;SDS011;73508;47.424;19.400;2023-12-04T08:56:58;34.07;;;13.23;;
75732;SDS011;73508;47.424;19.400;2023-12-04T08:59:23;26.98;;;12.68;;
75732;SDS011;73508;47.424;19.400;2023-12-04T09:01:49;28.90;;;13.27;;
75732;SDS011;73508;47.424;19.400;2023-12-04T09:04:14;31.90;;;12.60;;
75732;SDS011;73508;47.424;19.400;2023-12-04T09:06:40;28.70;;;12.50;;
75732;SDS011;73508;47.424;19.400;2023-12-04T09:09:05;27.63;;;10.87;;
75732;SDS011;73508;47.424;19.400;2023-12-04T09:11:30;27.20;;;12.20;;
75732;SDS011;73508;47.424;19.400;2023-12-04T09:13:56;23.90;;;12.03;;
75732;SDS011;73508;47.424;19.400;2023-12-04T09:16:21;25.07;;;12.00;;
75732;SDS011;73508;47.424;19.400;2023-12-04T09:18:48;27.05;;;11.32;;
75732;SDS011;73508;47.424;19.400;2023-12-04T09:21:14;28.20;;;12.20;;
75732;SDS011;73508;47.424;19.400;2023-12-04T09:23:39;26.17;;;11.07;;
75732;SDS011;73508;47.424;19.400;2023-12-04T09:26:05;24.10;;;10.83;;
75732;SDS011;73508;47.424;19.400;2023-12-04T09:28:30;29.53;;;11.83;;
75732;SDS011;73508;47.424;19.400;2023-12-04T09:30:55;29.70;;;12.50;;
75732;SDS011;73508;47.424;19.400;2023-12-04T09:33:21;26.40;;;11.47;;
75732;SDS011;73508;47.424;19.400;2023-12-04T09:35:46;23.80;;;10.83;;
75732;SDS011;73508;47.424;19.400;2023-12-04T09:38:12;22.97;;;10.60;;
75732;SDS011;73508;47.424;19.400;2023-12-04T09:40:37;23.40;;;10.32;;
75732;SDS011;73508;47.424;19.400;2023-12-04T09:43:03;22.60;;;10.27;;
75732;SDS011;73508;47.424;19.400;2023-12-04T09:45:28;22.00;;;10.50;;
75732;SDS011;73508;47.424;19.400;2023-12-04T09:47:54;25.73;;;11.37;;
75732;SDS011;73508;47.424;19.400;2023-12-04T09:50:20;24.37;;;10.63;;
75732;SDS011;73508;47.424;19.400;2023-12-04T09:52:51;24.25;;;11.38;;
75732;SDS011;73508;47.424;19.400;2023-12-04T09:55:17;22.30;;;10.37;;
75732;SDS011;73508;47.424;19.400;2023-12-04T09:57:46;20.30;;;9.15;;
75732;SDS011;73508;47.424;19.400;2023-12-04T10:00:14;20.85;;;8.73;;
75732;SDS011;73508;47.424;19.400;2023-12-04T10:02:40;19.97;;;8.20;;
75732;SDS011;73508;47.424;19.400;2023-12-04T10:05:06;23.87;;;8.82;;
75732;SDS011;73508;47.424;19.400;2023-12-04T10:07:32;15.27;;;7.05;;
75732;SDS011;73508;47.424;19.400;2023-12-04T10:09:58;16.60;;;6.43;;
75732;SDS011;73508;47.424;19.400;2023-12-04T10:12:23;15.00;;;6.43;;
75732;SDS011;73508;47.424;19.400;2023-12-04T10:15:03;15.40;;;7.62;;
75732;SDS011;73508;47.424;19.400;2023-12-04T10:17:33;14.00;;;7.35;;
75732;SDS011;73508;47.424;19.400;2023-12-04T10:20:04;16.10;;;7.78;;
75732;SDS011;73508;47.424;19.400;2023-12-04T10:22:35;14.98;;;7.03;;
75732;SDS011;73508;47.424;19.400;2023-12-04T10:25:13;13.00;;;6.63;;
75732;SDS011;73508;47.424;19.400;2023-12-04T10:27:39;16.92;;;7.47;;
75732;SDS011;73508;47.424;19.400;2023-12-04T10:30:05;17.80;;;7.17;;
75732;SDS011;73508;47.424;19.400;2023-12-04T10:32:35;13.62;;;6.70;;
75732;SDS011;73508;47.424;19.400;2023-12-04T10:35:02;14.50;;;6.65;;
75732;SDS011;73508;47.424;19.400;2023-12-04T10:37:28;15.10;;;6.13;;
75732;SDS011;73508;47.424;19.400;2023-12-04T10:39:54;13.65;;;6.68;;
75732;SDS011;73508;47.424;19.400;2023-12-04T10:42:26;13.20;;;6.30;;
75732;SDS011;73508;47.424;19.400;2023-12-04T10:44:56;12.35;;;6.22;;
75732;SDS011;73508;47.424;19.400;2023-12-04T10:47:22;14.32;;;6.37;;
75732;SDS011;73508;47.424;19.400;2023-12-04T10:49:49;11.82;;;5.80;;
75732;SDS011;73508;47.424;19.400;2023-12-04T10:52:16;11.40;;;5.78;;
75732;SDS011;73508;47.424;19.400;2023-12-04T10:54:44;9.90;;;5.17;;
75732;SDS011;73508;47.424;19.400;2023-12-04T10:57:10;13.57;;;5.35;;
75732;SDS011;73508;47.424;19.400;2023-12-04T10:59:36;14.18;;;6.00;;
75732;SDS011;73508;47.424;19.400;2023-12-04T11:02:04;11.93;;;5.57;;
75732;SDS011;73508;47.424;19.400;2023-12-04T12:02:48;11.00;;;5.50;;
75732;SDS011;73508;47.424;19.400;2023-12-04T12:05:14;11.77;;;5.47;;
75732;SDS011;73508;47.424;19.400;2023-12-04T12:07:39;10.20;;;4.80;;
75732;SDS011;73508;47.424;19.400;2023-12-04T12:10:05;10.90;;;4.93;;
75732;SDS011;73508;47.424;19.400;2023-12-04T12:12:31;11.70;;;5.57;;
75732;SDS011;73508;47.424;19.400;2023-12-04T12:15:01;11.07;;;5.60;;
75732;SDS011;73508;47.424;19.400;2023-12-04T12:17:26;13.57;;;6.23;;
75732;SDS011;73508;47.424;19.400;2023-12-04T12:19:52;11.55;;;4.93;;
75732;SDS011;73508;47.424;19.400;2023-12-04T12:22:19;10.20;;;4.70;;
75732;SDS011;73508;47.424;19.400;2023-12-04T12:24:44;13.27;;;6.03;;
75732;SDS011;73508;47.424;19.400;2023-12-04T12:27:10;9.73;;;5.03;;
75732;SDS011;73508;47.424;19.400;2023-12-04T12:29:35;11.73;;;5.57;;
75732;SDS011;73508;47.424;19.400;2023-12-04T12:32:01;14.17;;;5.27;;
75732;SDS011;73508;47.424;19.400;2023-12-04T12:34:28;10.85;;;5.32;;
75732;SDS011;73508;47.424;19.400;2023-12-04T12:36:53;9.97;;;5.33;;
75732;SDS011;73508;47.424;19.400;2023-12-04T12:39:19;11.32;;;5.35;;
75732;SDS011;73508;47.424;19.400;2023-12-04T12:41:51;11.63;;;5.03;;
75732;SDS011;73508;47.424;19.400;2023-12-04T12:44:16;12.85;;;5.43;;
75732;SDS011;73508;47.424;19.400;2023-12-04T12:46:42;11.43;;;5.60;;
75732;SDS011;73508;47.424;19.400;2023-12-04T12:49:07;11.20;;;5.73;;
75732;SDS011;73508;47.424;19.400;2023-12-04T12:51:33;9.63;;;5.03;;
75732;SDS011;73508;47.424;19.400;2023-12-04T12:53:58;11.50;;;5.80;;
75732;SDS011;73508;47.424;19.400;2023-12-04T12:56:27;12.55;;;5.60;;
75732;SDS011;73508;47.424;19.400;2023-12-04T12:58:53;9.85;;;5.03;;
75732;SDS011;73508;47.424;19.400;2023-12-04T13:01:18;17.20;;;5.47;;
75732;SDS011;73508;47.424;19.400;2023-12-04T13:03:47;10.50;;;5.43;;
75732;SDS011;73508;47.424;19.400;2023-12-04T13:06:12;12.20;;;5.68;;
75732;SDS011;73508;47.424;19.400;2023-12-04T13:08:38;10.87;;;5.33;;
75732;SDS011;73508;47.424;19.400;2023-12-04T13:11:04;14.07;;;6.32;;
75732;SDS011;73508;47.424;19.400;2023-12-04T13:13:30;11.40;;;5.47;;
75732;SDS011;73508;47.424;19.400;2023-12-04T13:15:57;11.15;;;5.37;;
75732;SDS011;73508;47.424;19.400;2023-12-04T13:18:22;14.10;;;6.17;;
75732;SDS011;73508;47.424;19.400;2023-12-04T13:20:47;11.77;;;5.60;;
75732;SDS011;73508;47.424;19.400;2023-12-04T13:23:13;10.93;;;5.93;;
75732;SDS011;73508;47.424;19.400;2023-12-04T13:25:38;13.23;;;6.10;;
75732;SDS011;73508;47.424;19.400;2023-12-04T13:28:04;13.53;;;6.17;;
75732;SDS011;73508;47.424;19.400;2023-12-04T13:30:30;18.15;;;7.28;;
75732;SDS011;73508;47.424;19.400;2023-12-04T13:32:56;21.67;;;7.93;;
75732;SDS011;73508;47.424;19.400;2023-12-04T13:35:21;23.95;;;8.57;;
75732;SDS011;73508;47.424;19.400;2023-12-04T13:37:47;24.20;;;8.70;;
75732;SDS011;73508;47.424;19.400;2023-12-04T13:40:19;21.65;;;7.82;;
75732;SDS011;73508;47.424;19.400;2023-12-04T13:42:45;16.57;;;6.63;;
75732;SDS011;73508;47.424;19.400;2023-12-04T13:45:29;16.00;;;7.45;;
75732;SDS011;73508;47.424;19.400;2023-12-04T13:47:54;16.77;;;7.00;;
75732;SDS011;73508;47.424;19.400;2023-12-04T13:50:20;19.30;;;6.93;;
75732;SDS011;73508;47.424;19.400;2023-12-04T13:52:45;23.38;;;8.45;;
75732;SDS011;73508;47.424;19.400;2023-12-04T13:55:20;22.97;;;8.83;;
75732;SDS011;73508;47.424;19.400;2023-12-04T13:57:55;22.73;;;9.65;;
75732;SDS011;73508;47.424;19.400;2023-12-04T14:00:24;34.25;;;10.82;;
75732;SDS011;73508;47.424;19.400;2023-12-04T14:02:50;29.20;;;10.85;;
75732;SDS011;73508;47.424;19.400;2023-12-04T14:05:19;17.48;;;8.18;;
75732;SDS011;73508;47.424;19.400;2023-12-04T14:07:46;20.03;;;8.33;;
75732;SDS011;73508;47.424;19.400;2023-12-04T14:10:12;20.58;;;8.95;;
75732;SDS011;73508;47.424;19.400;2023-12-04T14:12:39;20.85;;;8.18;;
75732;SDS011;73508;47.424;19.400;2023-12-04T14:15:08;20.85;;;8.18;;
75732;SDS011;73508;47.424;19.400;2023-12-04T14:17:34;15.53;;;6.83;;
75732;SDS011;73508;47.424;19.400;2023-12-04T14:19:59;16.92;;;7.80;;
75732;SDS011;73508;47.424;19.400;2023-12-04T14:22:25;15.90;;;7.57;;
75732;SDS011;73508;47.424;19.400;2023-12-04T14:24:51;15.07;;;6.17;;
75732;SDS011;73508;47.424;19.400;2023-12-04T14:27:16;12.55;;;5.90;;
75732;SDS011;73508;47.424;19.400;2023-12-04T14:29:42;13.57;;;7.30;;
75732;SDS011;73508;47.424;19.400;2023-12-04T14:32:07;13.57;;;6.57;;
75732;SDS011;73508;47.424;19.400;2023-12-04T14:34:32;12.93;;;6.67;;
75732;SDS011;73508;47.424;19.400;2023-12-04T14:36:58;12.43;;;6.40;;
75732;SDS011;73508;47.424;19.400;2023-12-04T14:39:24;16.67;;;7.27;;
75732;SDS011;73508;47.424;19.400;2023-12-04T14:41:49;16.70;;;7.62;;
75732;SDS011;73508;47.424;19.400;2023-12-04T14:44:15;19.80;;;9.30;;
75732;SDS011;73508;47.424;19.400;2023-12-04T14:46:40;23.10;;;11.13;;
75732;SDS011;73508;47.424;19.400;2023-12-04T14:49:06;20.70;;;9.63;;
75732;SDS011;73508;47.424;19.400;2023-12-04T14:51:31;21.27;;;9.33;;
75732;SDS011;73508;47.424;19.400;2023-12-04T14:53:57;21.05;;;11.05;;
75732;SDS011;73508;47.424;19.400;2023-12-04T14:56:41;21.50;;;10.33;;
75732;SDS011;73508;47.424;19.400;2023-12-04T14:59:26;24.33;;;11.65;;
75732;SDS011;73508;47.424;19.400;2023-12-04T15:02:12;42.33;;;16.15;;
75732;SDS011;73508;47.424;19.400;2023-12-04T15:04:57;37.83;;;16.73;;
75732;SDS011;73508;47.424;19.400;2023-12-04T15:07:41;31.92;;;14.68;;
75732;SDS011;73508;47.424;19.400;2023-12-04T15:10:25;26.27;;;10.67;;
75732;SDS011;73508;47.424;19.400;2023-12-04T15:13:16;22.40;;;10.43;;